Egues-Uharte, Spain
Current Conditions -  °F | °C
As of 10:30 PM on Friday 24 Oct 2014 (Local Time) from LEPP Reporting Station
Clear Clear  
Wind Chill: 64°   Ceiling: Unl
Heat Index: 64°   Visibility: 6mi
Dew Point: 50°   Wind: 2mph
Humidity: 59%   Direction: 80°E
Pressure: 30.15"   Gusts: NA
Location:  42.83°N, 1.59°W
Report Text: LEPP 242030Z 08002KT CAVOK 18/10 Q1021
Loading
Personal Weather Stations






























Interactive Weather Map
Tropical Storm Tracking
New forecast layout! Learn more

10-Day Weather Forecast

Advertisements
Track Severe Weather on mobile